<?xml version="1.0" encoding="UTF-8" standalone="no" ?>
<gpx xmlns="http://www.topografix.com/GPX/1/1" xmlns:xsi="http://www.w3.org/2001/XMLSchema-instance" xsi:schemaLocation="http://www.topografix.com/GPX/1/1 http://www.topografix.com/GPX/1/1/gpx.xsd" version="1.1" creator="VisuGPX - https://www.visugpx.com">
  <metadata>
    <name>Rando LN</name>
  </metadata>
  <trk>
    <name><![CDATA[monbazillac]]></name>
    <trkseg>
      <trkpt lat="44.80014" lon="0.32618">
        <ele>126.853</ele>
        <time>2017-03-29T11:04:32Z</time>
      </trkpt>
      <trkpt lat="44.80014" lon="0.32618">
        <ele>126.853</ele>
        <time>2017-03-29T11:04:32Z</time>
      </trkpt>
      <trkpt lat="44.80014" lon="0.32618">
        <ele>126.853</ele>
        <time>2017-03-29T11:04:32Z</time>
      </trkpt>
      <trkpt lat="44.80014" lon="0.32618">
        <ele>126.853</ele>
        <time>2017-03-29T11:04:32Z</time>
      </trkpt>
      <trkpt lat="44.80014" lon="0.32618">
        <ele>126.853</ele>
        <time>2017-03-29T11:04:32Z</time>
      </trkpt>
      <trkpt lat="44.80014" lon="0.32618">
        <ele>126.853</ele>
        <time>2017-03-29T11:04:32Z</time>
      </trkpt>
      <trkpt lat="44.80014" lon="0.32618">
        <ele>126.853</ele>
        <time>2017-03-29T11:04:32Z</time>
      </trkpt>
      <trkpt lat="44.80014" lon="0.32618">
        <ele>126.853</ele>
        <time>2017-03-29T11:04:32Z</time>
      </trkpt>
      <trkpt lat="44.80014" lon="0.32618">
        <ele>126.853</ele>
        <time>2017-03-29T11:04:32Z</time>
      </trkpt>
      <trkpt lat="44.80009" lon="0.32734">
        <ele>120.235</ele>
        <time>2017-03-29T11:04:52Z</time>
      </trkpt>
      <trkpt lat="44.80034" lon="0.32749">
        <ele>120.387</ele>
        <time>2017-03-29T11:05:12Z</time>
      </trkpt>
      <trkpt lat="44.80034" lon="0.32934">
        <ele>105.748</ele>
        <time>2017-03-29T11:05:32Z</time>
      </trkpt>
      <trkpt lat="44.80027" lon="0.33007">
        <ele>101.564</ele>
        <time>2017-03-29T11:05:52Z</time>
      </trkpt>
      <trkpt lat="44.80026" lon="0.33092">
        <ele>82.376</ele>
        <time>2017-03-29T11:06:12Z</time>
      </trkpt>
      <trkpt lat="44.80019" lon="0.33157">
        <ele>76.222</ele>
        <time>2017-03-29T11:06:32Z</time>
      </trkpt>
      <trkpt lat="44.79951" lon="0.33191">
        <ele>79.762</ele>
        <time>2017-03-29T11:06:52Z</time>
      </trkpt>
      <trkpt lat="44.79883" lon="0.3329">
        <ele>99.208</ele>
        <time>2017-03-29T11:07:12Z</time>
      </trkpt>
      <trkpt lat="44.79877" lon="0.33307">
        <ele>101.808</ele>
        <time>2017-03-29T11:07:32Z</time>
      </trkpt>
      <trkpt lat="44.79869" lon="0.33322">
        <ele>103.768</ele>
        <time>2017-03-29T11:07:52Z</time>
      </trkpt>
      <trkpt lat="44.79868" lon="0.33371">
        <ele>105.963</ele>
        <time>2017-03-29T11:08:12Z</time>
      </trkpt>
      <trkpt lat="44.79834" lon="0.33441">
        <ele>108.783</ele>
        <time>2017-03-29T11:08:32Z</time>
      </trkpt>
      <trkpt lat="44.79835" lon="0.33552">
        <ele>109.985</ele>
        <time>2017-03-29T11:08:52Z</time>
      </trkpt>
      <trkpt lat="44.79844" lon="0.33657">
        <ele>106.917</ele>
        <time>2017-03-29T11:09:12Z</time>
      </trkpt>
      <trkpt lat="44.79804" lon="0.33708">
        <ele>111.598</ele>
        <time>2017-03-29T11:09:32Z</time>
      </trkpt>
      <trkpt lat="44.79795" lon="0.33756">
        <ele>111.994</ele>
        <time>2017-03-29T11:09:52Z</time>
      </trkpt>
      <trkpt lat="44.79817" lon="0.33866">
        <ele>110.896</ele>
        <time>2017-03-29T11:10:12Z</time>
      </trkpt>
      <trkpt lat="44.79844" lon="0.3397">
        <ele>113.697</ele>
        <time>2017-03-29T11:10:32Z</time>
      </trkpt>
      <trkpt lat="44.79982" lon="0.34091">
        <ele>108.523</ele>
        <time>2017-03-29T11:10:52Z</time>
      </trkpt>
      <trkpt lat="44.79869" lon="0.34343">
        <ele>110.325</ele>
        <time>2017-03-29T11:11:12Z</time>
      </trkpt>
      <trkpt lat="44.79863" lon="0.34499">
        <ele>110.908</ele>
        <time>2017-03-29T11:11:32Z</time>
      </trkpt>
      <trkpt lat="44.79785" lon="0.34608">
        <ele>113.745</ele>
        <time>2017-03-29T11:11:52Z</time>
      </trkpt>
      <trkpt lat="44.79647" lon="0.3472">
        <ele>111.04</ele>
        <time>2017-03-29T11:12:12Z</time>
      </trkpt>
      <trkpt lat="44.79606" lon="0.34775">
        <ele>110.81</ele>
        <time>2017-03-29T11:12:32Z</time>
      </trkpt>
      <trkpt lat="44.79545" lon="0.34898">
        <ele>108.392</ele>
        <time>2017-03-29T11:12:52Z</time>
      </trkpt>
      <trkpt lat="44.79516" lon="0.34976">
        <ele>107.324</ele>
        <time>2017-03-29T11:13:12Z</time>
      </trkpt>
      <trkpt lat="44.79508" lon="0.35066">
        <ele>103.545</ele>
        <time>2017-03-29T11:13:32Z</time>
      </trkpt>
      <trkpt lat="44.79475" lon="0.35156">
        <ele>104.361</ele>
        <time>2017-03-29T11:13:52Z</time>
      </trkpt>
      <trkpt lat="44.79425" lon="0.3519">
        <ele>104.833</ele>
        <time>2017-03-29T11:14:12Z</time>
      </trkpt>
      <trkpt lat="44.79361" lon="0.3521">
        <ele>106.072</ele>
        <time>2017-03-29T11:14:32Z</time>
      </trkpt>
      <trkpt lat="44.79269" lon="0.35303">
        <ele>104.913</ele>
        <time>2017-03-29T11:14:52Z</time>
      </trkpt>
      <trkpt lat="44.79187" lon="0.35636">
        <ele>79.414</ele>
        <time>2017-03-29T11:15:12Z</time>
      </trkpt>
      <trkpt lat="44.79184" lon="0.3569">
        <ele>71.308</ele>
        <time>2017-03-29T11:15:32Z</time>
      </trkpt>
      <trkpt lat="44.79157" lon="0.35828">
        <ele>50.173</ele>
        <time>2017-03-29T11:15:52Z</time>
      </trkpt>
      <trkpt lat="44.79128" lon="0.35872">
        <ele>47.098</ele>
        <time>2017-03-29T11:16:12Z</time>
      </trkpt>
      <trkpt lat="44.79096" lon="0.35945">
        <ele>45.118</ele>
        <time>2017-03-29T11:16:32Z</time>
      </trkpt>
      <trkpt lat="44.79091" lon="0.35984">
        <ele>46.03</ele>
        <time>2017-03-29T11:16:52Z</time>
      </trkpt>
      <trkpt lat="44.79104" lon="0.36014">
        <ele>45.962</ele>
        <time>2017-03-29T11:17:12Z</time>
      </trkpt>
      <trkpt lat="44.79079" lon="0.36022">
        <ele>46.993</ele>
        <time>2017-03-29T11:17:32Z</time>
      </trkpt>
      <trkpt lat="44.7905" lon="0.36098">
        <ele>49.519</ele>
        <time>2017-03-29T11:17:52Z</time>
      </trkpt>
      <trkpt lat="44.79139" lon="0.36138">
        <ele>47.021</ele>
        <time>2017-03-29T11:18:12Z</time>
      </trkpt>
      <trkpt lat="44.79216" lon="0.36199">
        <ele>48.148</ele>
        <time>2017-03-29T11:18:32Z</time>
      </trkpt>
      <trkpt lat="44.7928" lon="0.36236">
        <ele>49.761</ele>
        <time>2017-03-29T11:18:52Z</time>
      </trkpt>
      <trkpt lat="44.79413" lon="0.36373">
        <ele>46.717</ele>
        <time>2017-03-29T11:19:12Z</time>
      </trkpt>
      <trkpt lat="44.79464" lon="0.36485">
        <ele>42.208</ele>
        <time>2017-03-29T11:19:32Z</time>
      </trkpt>
      <trkpt lat="44.79445" lon="0.36538">
        <ele>45.08</ele>
        <time>2017-03-29T11:19:52Z</time>
      </trkpt>
      <trkpt lat="44.79692" lon="0.36771">
        <ele>41.325</ele>
        <time>2017-03-29T11:20:12Z</time>
      </trkpt>
      <trkpt lat="44.79697" lon="0.3682">
        <ele>40.625</ele>
        <time>2017-03-29T11:20:32Z</time>
      </trkpt>
      <trkpt lat="44.7969" lon="0.36849">
        <ele>39.827</ele>
        <time>2017-03-29T11:20:52Z</time>
      </trkpt>
      <trkpt lat="44.79624" lon="0.36883">
        <ele>44.059</ele>
        <time>2017-03-29T11:21:12Z</time>
      </trkpt>
      <trkpt lat="44.79623" lon="0.36949">
        <ele>43.47</ele>
        <time>2017-03-29T11:21:32Z</time>
      </trkpt>
      <trkpt lat="44.79585" lon="0.37009">
        <ele>42.116</ele>
        <time>2017-03-29T11:21:52Z</time>
      </trkpt>
      <trkpt lat="44.79532" lon="0.37122">
        <ele>43.278</ele>
        <time>2017-03-29T11:22:12Z</time>
      </trkpt>
      <trkpt lat="44.79542" lon="0.37271">
        <ele>45.426</ele>
        <time>2017-03-29T11:22:32Z</time>
      </trkpt>
      <trkpt lat="44.79552" lon="0.3737">
        <ele>46.847</ele>
        <time>2017-03-29T11:22:52Z</time>
      </trkpt>
      <trkpt lat="44.79547" lon="0.37461">
        <ele>52.011</ele>
        <time>2017-03-29T11:23:12Z</time>
      </trkpt>
      <trkpt lat="44.79499" lon="0.3763">
        <ele>56.308</ele>
        <time>2020-11-25T02:44:20Z</time>
      </trkpt>
      <trkpt lat="44.79499" lon="0.3763">
        <ele>56.368</ele>
        <time>2020-11-25T02:44:40Z</time>
      </trkpt>
      <trkpt lat="44.79433" lon="0.37759">
        <ele>72.023</ele>
        <time>2020-11-25T02:45:00Z</time>
      </trkpt>
      <trkpt lat="44.7943" lon="0.37816">
        <ele>77.163</ele>
        <time>2020-11-25T02:45:20Z</time>
      </trkpt>
      <trkpt lat="44.79482" lon="0.38081">
        <ele>85.935</ele>
        <time>2020-11-25T02:45:40Z</time>
      </trkpt>
      <trkpt lat="44.79471" lon="0.38163">
        <ele>88.997</ele>
        <time>2020-11-25T02:46:00Z</time>
      </trkpt>
      <trkpt lat="44.79423" lon="0.38281">
        <ele>95.048</ele>
        <time>2020-11-25T02:46:20Z</time>
      </trkpt>
      <trkpt lat="44.79536" lon="0.38494">
        <ele>108.814</ele>
        <time>2020-11-25T02:46:40Z</time>
      </trkpt>
      <trkpt lat="44.79576" lon="0.38578">
        <ele>112.656</ele>
        <time>2020-11-25T02:47:00Z</time>
      </trkpt>
      <trkpt lat="44.79658" lon="0.38708">
        <ele>113.018</ele>
        <time>2020-11-25T02:47:20Z</time>
      </trkpt>
      <trkpt lat="44.79739" lon="0.38909">
        <ele>116.798</ele>
        <time>2020-11-25T02:47:40Z</time>
      </trkpt>
      <trkpt lat="44.79677" lon="0.3905">
        <ele>116.917</ele>
        <time>2020-11-25T02:48:00Z</time>
      </trkpt>
      <trkpt lat="44.79638" lon="0.39294">
        <ele>118.608</ele>
        <time>2020-11-25T02:48:20Z</time>
      </trkpt>
      <trkpt lat="44.79574" lon="0.39481">
        <ele>119.737</ele>
        <time>2020-11-25T02:48:40Z</time>
      </trkpt>
      <trkpt lat="44.79628" lon="0.39502">
        <ele>121.562</ele>
        <time>2017-03-29T11:38:52Z</time>
      </trkpt>
      <trkpt lat="44.79831" lon="0.39654">
        <ele>113.852</ele>
        <time>2017-03-29T11:39:12Z</time>
      </trkpt>
      <trkpt lat="44.79831" lon="0.39654">
        <ele>113.852</ele>
        <time>2017-03-29T11:39:12Z</time>
      </trkpt>
      <trkpt lat="44.79831" lon="0.39654">
        <ele>113.852</ele>
        <time>2017-03-29T11:39:12Z</time>
      </trkpt>
      <trkpt lat="44.79831" lon="0.39654">
        <ele>113.852</ele>
        <time>2017-03-29T11:39:12Z</time>
      </trkpt>
      <trkpt lat="44.79831" lon="0.39654">
        <ele>113.852</ele>
        <time>2017-03-29T11:39:12Z</time>
      </trkpt>
      <trkpt lat="44.79831" lon="0.39654">
        <ele>113.852</ele>
        <time>2017-03-29T11:39:12Z</time>
      </trkpt>
      <trkpt lat="44.79826" lon="0.397">
        <ele>115.354</ele>
        <time>2017-03-29T11:39:32Z</time>
      </trkpt>
      <trkpt lat="44.79805" lon="0.39743">
        <ele>116.046</ele>
        <time>2017-03-29T11:39:52Z</time>
      </trkpt>
      <trkpt lat="44.79784" lon="0.39839">
        <ele>113.197</ele>
        <time>2017-03-29T11:40:12Z</time>
      </trkpt>
      <trkpt lat="44.79682" lon="0.40171">
        <ele>115.393</ele>
        <time>2017-03-29T11:40:32Z</time>
      </trkpt>
      <trkpt lat="44.79767" lon="0.40193">
        <ele>107.675</ele>
        <time>2017-03-29T11:40:52Z</time>
      </trkpt>
      <trkpt lat="44.79791" lon="0.40276">
        <ele>105.546</ele>
        <time>2017-03-29T11:41:12Z</time>
      </trkpt>
      <trkpt lat="44.79878" lon="0.40299">
        <ele>96.788</ele>
        <time>2017-03-29T11:41:32Z</time>
      </trkpt>
      <trkpt lat="44.79942" lon="0.40337">
        <ele>86.516</ele>
        <time>2017-03-29T11:41:52Z</time>
      </trkpt>
      <trkpt lat="44.79986" lon="0.40512">
        <ele>94.708</ele>
        <time>2017-03-29T11:42:12Z</time>
      </trkpt>
      <trkpt lat="44.80066" lon="0.40481">
        <ele>82.92</ele>
        <time>2017-03-29T11:42:32Z</time>
      </trkpt>
      <trkpt lat="44.80174" lon="0.40464">
        <ele>71.325</ele>
        <time>2017-03-29T11:42:52Z</time>
      </trkpt>
      <trkpt lat="44.80313" lon="0.40489">
        <ele>59.665</ele>
        <time>2017-03-29T11:43:12Z</time>
      </trkpt>
      <trkpt lat="44.80336" lon="0.40766">
        <ele>63.317</ele>
        <time>2017-03-29T11:43:32Z</time>
      </trkpt>
      <trkpt lat="44.80344" lon="0.40771">
        <ele>62.999</ele>
        <time>2017-03-29T11:43:52Z</time>
      </trkpt>
      <trkpt lat="44.8036" lon="0.40876">
        <ele>65.32</ele>
        <time>2017-03-29T11:44:12Z</time>
      </trkpt>
      <trkpt lat="44.80379" lon="0.4094">
        <ele>63.376</ele>
        <time>2017-03-29T11:44:32Z</time>
      </trkpt>
      <trkpt lat="44.8038" lon="0.40989">
        <ele>65.038</ele>
        <time>2017-03-29T11:44:52Z</time>
      </trkpt>
      <trkpt lat="44.80348" lon="0.41153">
        <ele>65.988</ele>
        <time>2017-03-29T11:45:12Z</time>
      </trkpt>
      <trkpt lat="44.80358" lon="0.41212">
        <ele>63.024</ele>
        <time>2017-03-29T11:45:32Z</time>
      </trkpt>
      <trkpt lat="44.8044" lon="0.41201">
        <ele>60.226</ele>
        <time>2017-03-29T11:45:52Z</time>
      </trkpt>
      <trkpt lat="44.80469" lon="0.4128">
        <ele>60.208</ele>
        <time>2017-03-29T11:46:12Z</time>
      </trkpt>
      <trkpt lat="44.80464" lon="0.41297">
        <ele>60.184</ele>
        <time>2017-03-29T11:46:32Z</time>
      </trkpt>
      <trkpt lat="44.80602" lon="0.41279">
        <ele>65.169</ele>
        <time>2017-03-29T11:46:52Z</time>
      </trkpt>
      <trkpt lat="44.8061" lon="0.4134">
        <ele>66.559</ele>
        <time>2017-03-29T11:47:12Z</time>
      </trkpt>
      <trkpt lat="44.80613" lon="0.41422">
        <ele>63.541</ele>
        <time>2017-03-29T11:47:32Z</time>
      </trkpt>
      <trkpt lat="44.80634" lon="0.41527">
        <ele>63.833</ele>
        <time>2017-03-29T11:47:52Z</time>
      </trkpt>
      <trkpt lat="44.80634" lon="0.41668">
        <ele>67.394</ele>
        <time>2017-03-29T11:48:12Z</time>
      </trkpt>
      <trkpt lat="44.80684" lon="0.41881">
        <ele>76.88</ele>
        <time>2017-03-29T11:48:32Z</time>
      </trkpt>
      <trkpt lat="44.80686" lon="0.41941">
        <ele>77.142</ele>
        <time>2017-03-29T11:48:52Z</time>
      </trkpt>
      <trkpt lat="44.80678" lon="0.42186">
        <ele>79.662</ele>
        <time>2017-03-29T11:49:12Z</time>
      </trkpt>
      <trkpt lat="44.80657" lon="0.42288">
        <ele>82.683</ele>
        <time>2017-03-29T11:49:32Z</time>
      </trkpt>
      <trkpt lat="44.80605" lon="0.42392">
        <ele>85.211</ele>
        <time>2017-03-29T11:49:52Z</time>
      </trkpt>
      <trkpt lat="44.80594" lon="0.42464">
        <ele>83.508</ele>
        <time>2017-03-29T11:50:12Z</time>
      </trkpt>
      <trkpt lat="44.80626" lon="0.4263">
        <ele>89.442</ele>
        <time>2017-03-29T11:50:32Z</time>
      </trkpt>
      <trkpt lat="44.80423" lon="0.43014">
        <ele>98.077</ele>
        <time>2017-03-29T11:50:52Z</time>
      </trkpt>
      <trkpt lat="44.80415" lon="0.4309">
        <ele>97.157</ele>
        <time>2017-03-29T11:51:12Z</time>
      </trkpt>
      <trkpt lat="44.80444" lon="0.43136">
        <ele>95.029</ele>
        <time>2017-03-29T11:51:32Z</time>
      </trkpt>
      <trkpt lat="44.80504" lon="0.43169">
        <ele>101.891</ele>
        <time>2017-03-29T11:51:52Z</time>
      </trkpt>
      <trkpt lat="44.80558" lon="0.43222">
        <ele>114.922</ele>
        <time>2017-03-29T11:52:12Z</time>
      </trkpt>
      <trkpt lat="44.806" lon="0.43273">
        <ele>123.658</ele>
        <time>2017-03-29T11:52:32Z</time>
      </trkpt>
      <trkpt lat="44.80613" lon="0.43278">
        <ele>123.97</ele>
        <time>2017-03-29T11:52:52Z</time>
      </trkpt>
      <trkpt lat="44.80631" lon="0.43304">
        <ele>125.114</ele>
        <time>2017-03-29T11:53:12Z</time>
      </trkpt>
      <trkpt lat="44.80631" lon="0.43329">
        <ele>128.554</ele>
        <time>2017-03-29T11:53:32Z</time>
      </trkpt>
      <trkpt lat="44.80656" lon="0.43358">
        <ele>130.309</ele>
        <time>2017-03-29T11:53:52Z</time>
      </trkpt>
      <trkpt lat="44.80695" lon="0.43388">
        <ele>131.908</ele>
        <time>2017-03-29T11:54:12Z</time>
      </trkpt>
      <trkpt lat="44.80734" lon="0.43446">
        <ele>134.357</ele>
        <time>2017-03-29T11:54:32Z</time>
      </trkpt>
      <trkpt lat="44.80744" lon="0.43531">
        <ele>138.052</ele>
        <time>2017-03-29T11:54:52Z</time>
      </trkpt>
      <trkpt lat="44.80755" lon="0.43559">
        <ele>137.842</ele>
        <time>2017-03-29T11:55:12Z</time>
      </trkpt>
      <trkpt lat="44.80748" lon="0.43571">
        <ele>138.014</ele>
        <time>2017-03-29T11:55:32Z</time>
      </trkpt>
      <trkpt lat="44.80642" lon="0.4359">
        <ele>137.396</ele>
        <time>2017-03-29T11:55:52Z</time>
      </trkpt>
      <trkpt lat="44.80559" lon="0.43613">
        <ele>138.227</ele>
        <time>2017-03-29T11:56:12Z</time>
      </trkpt>
      <trkpt lat="44.80475" lon="0.43594">
        <ele>129.493</ele>
        <time>2017-03-29T11:56:32Z</time>
      </trkpt>
      <trkpt lat="44.80429" lon="0.43594">
        <ele>133.935</ele>
        <time>2017-03-29T11:56:52Z</time>
      </trkpt>
      <trkpt lat="44.80406" lon="0.4358">
        <ele>135.117</ele>
        <time>2017-03-29T11:57:12Z</time>
      </trkpt>
      <trkpt lat="44.80382" lon="0.43592">
        <ele>137.787</ele>
        <time>2017-03-29T11:57:32Z</time>
      </trkpt>
      <trkpt lat="44.80303" lon="0.43683">
        <ele>141.415</ele>
        <time>2017-03-29T11:57:52Z</time>
      </trkpt>
      <trkpt lat="44.8012" lon="0.43698">
        <ele>138.508</ele>
        <time>2017-03-29T11:58:12Z</time>
      </trkpt>
      <trkpt lat="44.80004" lon="0.43642">
        <ele>141.167</ele>
        <time>2017-03-29T11:58:32Z</time>
      </trkpt>
      <trkpt lat="44.79988" lon="0.43712">
        <ele>145.082</ele>
        <time>2017-03-29T11:58:52Z</time>
      </trkpt>
      <trkpt lat="44.79954" lon="0.43739">
        <ele>145.452</ele>
        <time>2017-03-29T11:59:12Z</time>
      </trkpt>
      <trkpt lat="44.79937" lon="0.43768">
        <ele>145.544</ele>
        <time>2017-03-29T11:59:32Z</time>
      </trkpt>
      <trkpt lat="44.7978" lon="0.44004">
        <ele>139.876</ele>
        <time>2017-03-29T11:59:52Z</time>
      </trkpt>
      <trkpt lat="44.79681" lon="0.44202">
        <ele>133.947</ele>
        <time>2017-03-29T12:00:12Z</time>
      </trkpt>
      <trkpt lat="44.79629" lon="0.44272">
        <ele>128.643</ele>
        <time>2017-03-29T12:00:32Z</time>
      </trkpt>
      <trkpt lat="44.79519" lon="0.44401">
        <ele>129.925</ele>
        <time>2017-03-29T12:00:52Z</time>
      </trkpt>
      <trkpt lat="44.79509" lon="0.44521">
        <ele>128.486</ele>
        <time>2017-03-29T12:01:12Z</time>
      </trkpt>
      <trkpt lat="44.79668" lon="0.44528">
        <ele>138.06</ele>
        <time>2017-03-29T12:01:32Z</time>
      </trkpt>
      <trkpt lat="44.79724" lon="0.44596">
        <ele>144.026</ele>
        <time>2017-03-29T12:01:52Z</time>
      </trkpt>
      <trkpt lat="44.79829" lon="0.44625">
        <ele>151.308</ele>
        <time>2017-03-29T12:02:12Z</time>
      </trkpt>
      <trkpt lat="44.79845" lon="0.4477">
        <ele>154.514</ele>
        <time>2017-03-29T12:02:32Z</time>
      </trkpt>
      <trkpt lat="44.79861" lon="0.4482">
        <ele>153.539</ele>
        <time>2017-03-29T12:02:52Z</time>
      </trkpt>
      <trkpt lat="44.79841" lon="0.45027">
        <ele>159.539</ele>
        <time>2017-03-29T12:03:12Z</time>
      </trkpt>
      <trkpt lat="44.79914" lon="0.45034">
        <ele>159.861</ele>
        <time>2017-03-29T12:03:32Z</time>
      </trkpt>
      <trkpt lat="44.79947" lon="0.4507">
        <ele>162.183</ele>
        <time>2017-03-29T12:03:52Z</time>
      </trkpt>
      <trkpt lat="44.79951" lon="0.45113">
        <ele>166.144</ele>
        <time>2017-03-29T12:04:12Z</time>
      </trkpt>
      <trkpt lat="44.79904" lon="0.45163">
        <ele>168.18</ele>
        <time>2017-03-29T12:04:32Z</time>
      </trkpt>
      <trkpt lat="44.79849" lon="0.45215">
        <ele>163.022</ele>
        <time>2017-03-29T12:04:52Z</time>
      </trkpt>
      <trkpt lat="44.79829" lon="0.45243">
        <ele>162.331</ele>
        <time>2017-03-29T12:05:12Z</time>
      </trkpt>
      <trkpt lat="44.79812" lon="0.45286">
        <ele>160.961</ele>
        <time>2017-03-29T12:05:32Z</time>
      </trkpt>
      <trkpt lat="44.79807" lon="0.45341">
        <ele>161.407</ele>
        <time>2017-03-29T12:05:52Z</time>
      </trkpt>
      <trkpt lat="44.79804" lon="0.45393">
        <ele>163.208</ele>
        <time>2017-03-29T12:06:12Z</time>
      </trkpt>
      <trkpt lat="44.79806" lon="0.45434">
        <ele>163.089</ele>
        <time>2017-03-29T12:06:32Z</time>
      </trkpt>
      <trkpt lat="44.79789" lon="0.45594">
        <ele>165.614</ele>
        <time>2017-03-29T12:06:52Z</time>
      </trkpt>
      <trkpt lat="44.7976" lon="0.45809">
        <ele>166.564</ele>
        <time>2017-03-29T12:07:12Z</time>
      </trkpt>
      <trkpt lat="44.79679" lon="0.46119">
        <ele>187.676</ele>
        <time>2017-03-29T12:07:32Z</time>
      </trkpt>
      <trkpt lat="44.79622" lon="0.46262">
        <ele>181.818</ele>
        <time>2017-03-29T12:07:52Z</time>
      </trkpt>
      <trkpt lat="44.79578" lon="0.46422">
        <ele>174.879</ele>
        <time>2017-03-29T12:08:12Z</time>
      </trkpt>
      <trkpt lat="44.79496" lon="0.46638">
        <ele>171.165</ele>
        <time>2017-03-29T12:08:32Z</time>
      </trkpt>
      <trkpt lat="44.79391" lon="0.46572">
        <ele>169.737</ele>
        <time>2017-03-29T12:08:52Z</time>
      </trkpt>
      <trkpt lat="44.79337" lon="0.4646">
        <ele>162.632</ele>
        <time>2017-03-29T12:09:12Z</time>
      </trkpt>
      <trkpt lat="44.79114" lon="0.4634">
        <ele>157.492</ele>
        <time>2017-03-29T12:09:32Z</time>
      </trkpt>
      <trkpt lat="44.79097" lon="0.46389">
        <ele>162.011</ele>
        <time>2017-03-29T12:09:52Z</time>
      </trkpt>
      <trkpt lat="44.79066" lon="0.46413">
        <ele>165.308</ele>
        <time>2017-03-29T12:10:12Z</time>
      </trkpt>
      <trkpt lat="44.79045" lon="0.46528">
        <ele>164.049</ele>
        <time>2017-03-29T12:10:32Z</time>
      </trkpt>
      <trkpt lat="44.79035" lon="0.46545">
        <ele>163.544</ele>
        <time>2017-03-29T12:10:52Z</time>
      </trkpt>
      <trkpt lat="44.79028" lon="0.46576">
        <ele>162.384</ele>
        <time>2017-03-29T12:11:12Z</time>
      </trkpt>
      <trkpt lat="44.79001" lon="0.4662">
        <ele>160.036</ele>
        <time>2017-03-29T12:11:32Z</time>
      </trkpt>
      <trkpt lat="44.78984" lon="0.46704">
        <ele>158.258</ele>
        <time>2017-03-29T12:11:52Z</time>
      </trkpt>
      <trkpt lat="44.78903" lon="0.46731">
        <ele>150.759</ele>
        <time>2017-03-29T12:12:12Z</time>
      </trkpt>
      <trkpt lat="44.78753" lon="0.46699">
        <ele>148.945</ele>
        <time>2017-03-29T12:12:32Z</time>
      </trkpt>
      <trkpt lat="44.78773" lon="0.46804">
        <ele>144.927</ele>
        <time>2017-03-29T12:12:52Z</time>
      </trkpt>
      <trkpt lat="44.78728" lon="0.46817">
        <ele>142.357</ele>
        <time>2017-03-29T12:13:12Z</time>
      </trkpt>
      <trkpt lat="44.78722" lon="0.46896">
        <ele>145</ele>
        <time>2017-03-29T12:13:32Z</time>
      </trkpt>
      <trkpt lat="44.78719" lon="0.46999">
        <ele>143.62</ele>
        <time>2017-03-29T12:13:52Z</time>
      </trkpt>
      <trkpt lat="44.78743" lon="0.47223">
        <ele>140.908</ele>
        <time>2017-03-29T12:14:12Z</time>
      </trkpt>
      <trkpt lat="44.78765" lon="0.4727">
        <ele>139.211</ele>
        <time>2017-03-29T12:14:32Z</time>
      </trkpt>
      <trkpt lat="44.78785" lon="0.47285">
        <ele>139.796</ele>
        <time>2017-03-29T12:14:52Z</time>
      </trkpt>
      <trkpt lat="44.78863" lon="0.47286">
        <ele>141.216</ele>
        <time>2017-03-29T12:15:12Z</time>
      </trkpt>
      <trkpt lat="44.78869" lon="0.47344">
        <ele>140.148</ele>
        <time>2017-03-29T12:15:32Z</time>
      </trkpt>
      <trkpt lat="44.78898" lon="0.47473">
        <ele>143.23</ele>
        <time>2017-03-29T12:15:52Z</time>
      </trkpt>
      <trkpt lat="44.78941" lon="0.47619">
        <ele>138.861</ele>
        <time>2017-03-29T12:16:12Z</time>
      </trkpt>
      <trkpt lat="44.78983" lon="0.47706">
        <ele>143.387</ele>
        <time>2017-03-29T12:16:32Z</time>
      </trkpt>
      <trkpt lat="44.79078" lon="0.47831">
        <ele>147.089</ele>
        <time>2017-03-29T12:16:52Z</time>
      </trkpt>
      <trkpt lat="44.79028" lon="0.47889">
        <ele>146.051</ele>
        <time>2017-03-29T12:17:12Z</time>
      </trkpt>
      <trkpt lat="44.78892" lon="0.47923">
        <ele>146.001</ele>
        <time>2017-03-29T12:17:32Z</time>
      </trkpt>
      <trkpt lat="44.78841" lon="0.47916">
        <ele>147.011</ele>
        <time>2017-03-29T12:17:52Z</time>
      </trkpt>
      <trkpt lat="44.78835" lon="0.47947">
        <ele>146.908</ele>
        <time>2017-03-29T12:18:12Z</time>
      </trkpt>
      <trkpt lat="44.78835" lon="0.48061">
        <ele>147.061</ele>
        <time>2017-03-29T12:18:32Z</time>
      </trkpt>
      <trkpt lat="44.78891" lon="0.48307">
        <ele>152.016</ele>
        <time>2017-03-29T12:18:52Z</time>
      </trkpt>
      <trkpt lat="44.78888" lon="0.48356">
        <ele>152.076</ele>
        <time>2017-03-29T12:19:12Z</time>
      </trkpt>
      <trkpt lat="44.78861" lon="0.48479">
        <ele>154.088</ele>
        <time>2017-03-29T12:19:32Z</time>
      </trkpt>
      <trkpt lat="44.78902" lon="0.48523">
        <ele>155.44</ele>
        <time>2017-03-29T12:19:52Z</time>
      </trkpt>
      <trkpt lat="44.78994" lon="0.48567">
        <ele>160.131</ele>
        <time>2017-03-29T12:20:12Z</time>
      </trkpt>
      <trkpt lat="44.79129" lon="0.48649">
        <ele>157.217</ele>
        <time>2017-03-29T12:20:32Z</time>
      </trkpt>
      <trkpt lat="44.79204" lon="0.48704">
        <ele>157.339</ele>
        <time>2017-03-29T12:20:52Z</time>
      </trkpt>
      <trkpt lat="44.79203" lon="0.48752">
        <ele>158.712</ele>
        <time>2017-03-29T12:21:12Z</time>
      </trkpt>
      <trkpt lat="44.79223" lon="0.48794">
        <ele>159.632</ele>
        <time>2017-03-29T12:21:32Z</time>
      </trkpt>
      <trkpt lat="44.79265" lon="0.48818">
        <ele>160.905</ele>
        <time>2017-03-29T12:21:52Z</time>
      </trkpt>
      <trkpt lat="44.79389" lon="0.49149">
        <ele>167.408</ele>
        <time>2017-03-29T12:22:12Z</time>
      </trkpt>
      <trkpt lat="44.79432" lon="0.49208">
        <ele>167.647</ele>
        <time>2017-03-29T12:22:32Z</time>
      </trkpt>
      <trkpt lat="44.79487" lon="0.4924">
        <ele>160.722</ele>
        <time>2017-03-29T12:22:52Z</time>
      </trkpt>
      <trkpt lat="44.79528" lon="0.49237">
        <ele>156.642</ele>
        <time>2017-03-29T12:23:12Z</time>
      </trkpt>
      <trkpt lat="44.79533" lon="0.49263">
        <ele>157.854</ele>
        <time>2017-03-29T12:23:32Z</time>
      </trkpt>
      <trkpt lat="44.79652" lon="0.49322">
        <ele>156.896</ele>
        <time>2017-03-29T12:23:52Z</time>
      </trkpt>
      <trkpt lat="44.79775" lon="0.49336">
        <ele>144.627</ele>
        <time>2017-03-29T12:24:12Z</time>
      </trkpt>
      <trkpt lat="44.79737" lon="0.49538">
        <ele>135.673</ele>
        <time>2017-03-29T12:24:32Z</time>
      </trkpt>
      <trkpt lat="44.7969" lon="0.49593">
        <ele>139.395</ele>
        <time>2017-03-29T12:24:52Z</time>
      </trkpt>
      <trkpt lat="44.79654" lon="0.49749">
        <ele>141.892</ele>
        <time>2017-03-29T12:25:12Z</time>
      </trkpt>
      <trkpt lat="44.79576" lon="0.49808">
        <ele>150.473</ele>
        <time>2017-03-29T12:25:32Z</time>
      </trkpt>
      <trkpt lat="44.79535" lon="0.49975">
        <ele>160.22</ele>
        <time>2017-03-29T12:25:52Z</time>
      </trkpt>
      <trkpt lat="44.79352" lon="0.49969">
        <ele>172.408</ele>
        <time>2017-03-29T12:26:12Z</time>
      </trkpt>
      <trkpt lat="44.79298" lon="0.50016">
        <ele>177.355</ele>
        <time>2017-03-29T12:26:32Z</time>
      </trkpt>
      <trkpt lat="44.79226" lon="0.50048">
        <ele>178.11</ele>
        <time>2017-03-29T12:26:52Z</time>
      </trkpt>
      <trkpt lat="44.79203" lon="0.50044">
        <ele>176.64</ele>
        <time>2017-03-29T12:27:12Z</time>
      </trkpt>
    </trkseg>
  </trk>
</gpx>